EGNT Airport Information

Runway Information
Runway 07 Length 7642 ft width 151 ft Elevation 263 ft Threshold 394 ft Heading 65
Runway 25 Length 7642 ft Width 151 ft Elevation 239 ft Threshold 446 ft Heading 245
Airport Frequencies
Type APP Name APP Frequency 124.375 MHZ
Type ATIS Name ATIS Frequency 118.375 MHZ
Type GND Name GND Frequency 121.725 MHZ
Type TWR Name TWR Frequency 119.7 MHZ
Type ILS Name Runway 07/ Frequency 111.5 MHZ
Airport Navaids
Type VOR-DME Name Newcastle Frequency 114250 KHZ
Airport Weather Information & NOTAM
ADDS - METARS form results

(0406 UTC 05 February 2023)
Data provider http://aviationweather.gov/metar/data/
 
METAR text: EGNT 050350Z AUTO 29006KT 9999 NCD M01/M02 Q1043
Conditions at: EGNT (NEWCASTLE , GB) observed 0350 UTC 05 February 2023
Temperature: -1.0°C (30°F)
Dewpoint: -2.0°C (28°F) [RH = 93%]
Pressure (altimeter): 30.80 inches Hg (1043.0 mb)
Winds: from the WNW (290 degrees) at 7 MPH (6 knots; 3.1 m/s)
Visibility: 6 or more miles (10+ km)
Ceiling: at least 12,000 feet AGL
Clouds: sky clear below 12,000 feet AGL
Weather: no significant weather observed at this time

METAR text: EGNT 050320Z AUTO 31005KT 9999 NCD 01/M01 Q1042
Conditions at: EGNT (NEWCASTLE , GB) observed 0320 UTC 05 February 2023
Temperature: 1.0°C (34°F)
Dewpoint: -1.0°C (30°F) [RH = 86%]
Pressure (altimeter): 30.77 inches Hg (1042.0 mb)
Winds: from the NW (310 degrees) at 6 MPH (5 knots; 2.6 m/s)
Visibility: 6 or more miles (10+ km)
Ceiling: at least 12,000 feet AGL
Clouds: sky clear below 12,000 feet AGL
Weather: no significant weather observed at this time

Forecast for: EGNT (NEWCASTLE , GB)
Text: TAF EGNT 042254Z 0500/0524 30006KT 9999 FEW035
Forecast period: 0000 UTC 05 February 2023 to 0000 UTC 06 February 2023
Forecast type: FROM: standard forecast or significant change
Winds: from the WNW (300 degrees) at 7 MPH (6 knots; 3.1 m/s)
Visibility: 6 or more miles (10+ km)
Ceiling: at least 12,000 feet AGL
Clouds: few clouds at 3500 feet AGL
Weather: no significant weather forecast for this period